Time;durP1;ratioP1;P1;durP2;ratioP2;P2;SDS_P1;SDS_P2;PMS_P1;PMS_P2;Temp;Humidity;BMP_temperature;BMP_pressure;BME280_temperature;BME280_humidity;BME280_pressure;Samples;Min_cycle;Max_cycle;Signal;HPM_P1;HPM_P2
2022/09/28 00:02:34;;;;;;;;;;;;;;;;;;20753808;28;20381;-67
2022/09/28 00:12:36;;;;;;;;;;;;;;;;;;20752697;28;20064;-61
2022/09/28 00:22:38;;;;;;;;;;;;;;;;;;20735061;28;19933;-67
2022/09/28 00:32:39;;;;;;;;;;;;;;;;;;20752343;28;19925;-63
2022/09/28 00:42:41;;;;;;;;;;;;;;;;;;20754848;28;19926;-61
2022/09/28 00:52:43;;;;;;;;;;;;;;;;;;20750438;28;19932;-63
2022/09/28 01:02:45;;;;;;;;;;;;;;;;;;20749540;28;20028;-64
2022/09/28 01:12:47;;;;;;;;;;;;;;;;;;20749125;28;20036;-62
2022/09/28 01:22:52;;;;;;;;;;;;;;;;;;20748810;28;19929;-62
2022/09/28 01:32:58;;;;;;;;;;;;;;;;;;20748352;28;19991;-62
2022/09/28 01:43:00;;;;;;;;;;;;;;;;;;20748139;28;19969;-63
2022/09/28 01:53:07;;;;;;;;;;;;;;;;;;20747607;28;19926;-63
2022/09/28 02:03:11;;;;;;;;;;;;;;;;;;20747599;28;20020;-65
2022/09/28 02:13:14;;;;;;;;;;;;;;;;;;20747295;28;19930;-61
2022/09/28 02:23:18;;;;;;;;;;;;;;;;;;20729194;28;19925;-62
2022/09/28 02:33:22;;;;;;;;;;;;;;;;;;20756331;28;19932;-65
2022/09/28 02:43:26;;;;;;;;;;;;;;;;;;20760791;28;19929;-63
2022/09/28 02:53:30;;;;;;;;;;;;;;;;;;20759750;28;19925;-62
2022/09/28 03:03:32;;;;;;;;;;;;;;;;;;20759524;28;19932;-66
2022/09/28 03:13:34;;;;;;;;;;;;;;;;;;20757738;28;19933;-63
2022/09/28 03:23:38;;;;;;;;;;;;;;;;;;20758588;28;20267;-64
2022/09/28 03:33:40;;;;;;;;;;;;;;;;;;20757658;28;19932;-66
2022/09/28 03:43:42;;;;;;;;;;;;;;;;;;20754669;28;19925;-65
2022/09/28 03:53:44;;;;;;;;;;;;;;;;;;20754320;28;19936;-65
2022/09/28 04:03:46;;;;;;;;;;;;;;;;;;20753887;28;19929;-67
2022/09/28 04:13:48;;;;;;;;;;;;;;;;;;20754343;28;20409;-65
2022/09/28 04:23:51;;;;;;;;;;;;;;;;;;20752383;28;19925;-67
2022/09/28 04:33:54;;;;;;;;;;;;;;;;;;20751552;28;19925;-66
2022/09/28 04:43:56;;;;;;;;;;;;;;;;;;20750761;28;19925;-66
2022/09/28 04:53:58;;;;;;;;;;;;;;;;;;20750172;28;20319;-60
2022/09/28 05:04:00;;;;;;;;;;;;;;;;;;20749363;28;20034;-66
2022/09/28 05:14:02;;;;;;;;;;;;;;;;;;20749192;28;20361;-65
2022/09/28 05:24:06;;;;;;;;;;;;;;;;;;20748683;28;19935;-66
2022/09/28 05:34:08;;;;;;;;;;;;;;;;;;20748060;28;20330;-61
2022/09/28 05:44:10;;;;;;;;;;;;;;;;;;20747328;28;19929;-63
2022/09/28 05:54:12;;;;;;;;;;;;;;;;;;20747469;28;19926;-61
2022/09/28 06:04:15;;;;;;;;;;;;;;;;;;20752632;28;19925;-66
2022/09/28 06:14:17;;;;;;;;;;;;;;;;;;20763330;28;19929;-66
2022/09/28 06:24:19;;;;;;;;;;;;;;;;;;20762219;28;19930;-65
2022/09/28 06:34:21;;;;;;;;;;;;;;;;;;20760263;28;19926;-66
2022/09/28 06:44:24;;;;;;;;;;;;;;;;;;20759480;28;20330;-63
2022/09/28 06:54:26;;;;;;;;;;;;;;;;;;20759884;28;19925;-65
2022/09/28 07:04:27;;;;;;;;;;;;;;;;;;20759486;28;19954;-66
2022/09/28 07:14:30;;;;;;;;;;;;;;;;;;20819889;28;20352;-67
2022/09/28 07:24:32;;;;;;;;;;;;;;;;;;20839678;28;19971;-60
2022/09/28 07:34:42;;;;;;;;;;;;;;;;;;20839194;28;19971;-67
2022/09/28 07:44:44;;;;;;;;;;;;;;;;;;20821225;28;19979;-65
2022/09/28 07:54:51;;;;;;;;;;;;;;;;;;20837973;28;20071;-67
2022/09/28 08:04:55;;;;;;;;;;;;;;;;;;20836498;28;20301;-67
2022/09/28 08:14:58;;;;;;;;;;;;;;;;;;20835878;28;19936;-61
2022/09/28 08:25:00;;;;;;;;;;;;;;;;;;20833960;28;19925;-61
2022/09/28 08:35:04;;;;;;;;;;;;;;;;;;20833645;28;19925;-65
2022/09/28 08:45:06;;;;;;;;;;;;;;;;;;20831710;28;19979;-64
2022/09/28 08:55:08;;;;;;;;;;;;;;;;;;20832584;28;19944;-65
2022/09/28 09:05:12;;;;;;;;;;;;;;;;;;20831463;28;20381;-62
2022/09/28 09:15:14;;;;;;;;;;;;;;;;;;20830531;28;19929;-62
2022/09/28 09:25:16;;;;;;;;;;;;;;;;;;20830538;28;20015;-66
2022/09/28 09:35:18;;;;;;;;;;;;;;;;;;20829983;28;20301;-66
2022/09/28 09:45:20;;;;;;;;;;;;;;;;;;20845978;28;19925;-63
2022/09/28 09:55:23;;;;;;;;;;;;;;;;;;20845082;28;19932;-61
2022/09/28 10:05:26;;;;;;;;;;;;;;;;;;20844581;28;19933;-66
2022/09/28 10:15:28;;;;;;;;;;;;;;;;;;20843220;28;19975;-67
2022/09/28 10:25:30;;;;;;;;;;;;;;;;;;20843120;28;20369;-66
2022/09/28 10:35:33;;;;;;;;;;;;;;;;;;20830555;28;19925;-61
2022/09/28 10:45:36;;;;;;;;;;;;;;;;;;20757749;28;20398;-61
2022/09/28 10:55:38;;;;;;;;;;;;;;;;;;20739138;28;19971;-62
2022/09/28 11:05:42;;;;;;;;;;;;;;;;;;20756291;28;19925;-60
2022/09/28 11:15:44;;;;;;;;;;;;;;;;;;20753510;28;20083;-66
2022/09/28 11:25:45;;;;;;;;;;;;;;;;;;20742411;28;20460;-64
2022/09/28 11:35:47;;;;;;;;;;;;;;;;;;20754796;28;19945;-64
2022/09/28 11:45:49;;;;;;;;;;;;;;;;;;20753462;28;19929;-60
2022/09/28 11:55:51;;;;;;;;;;;;;;;;;;20750408;28;19925;-62
2022/09/28 12:05:53;;;;;;;;;;;;;;;;;;20751132;28;19971;-59
2022/09/28 12:15:55;;;;;;;;;;;;;;;;;;20753070;28;20329;-62
2022/09/28 12:25:58;;;;;;;;;;;;;;;;;;20752017;28;20329;-61
2022/09/28 12:35:59;;;;;;;;;;;;;;;;;;20751388;28;19926;-63
2022/09/28 12:46:01;;;;;;;;;;;;;;;;;;20751358;28;20012;-63
2022/09/28 12:56:05;;;;;;;;;;;;;;;;;;20750371;28;19926;-64
2022/09/28 13:06:07;;;;;;;;;;;;;;;;;;20749498;28;19929;-62
2022/09/28 13:16:08;;;;;;;;;;;;;;;;;;20750501;28;19957;-62
2022/09/28 13:26:12;;;;;;;;;;;;;;;;;;20749082;28;20289;-60
2022/09/28 13:36:16;;;;;;;;;;;;;;;;;;20748102;28;19926;-63
2022/09/28 13:46:18;;;;;;;;;;;;;;;;;;20735799;28;19937;-63
2022/09/28 13:56:20;;;;;;;;;;;;;;;;;;20748289;28;20273;-62
2022/09/28 14:06:23;;;;;;;;;;;;;;;;;;20746591;28;20413;-62
2022/09/28 14:16:29;;;;;;;;;;;;;;;;;;20747100;28;19929;-62
2022/09/28 14:26:31;;;;;;;;;;;;;;;;;;20753973;28;19933;-64
2022/09/28 14:46:54;;;;;;;;;;;;;;;;;;20756835;28;19940;-63
2022/09/28 14:56:56;;;;;;;;;;;;;;;;;;20755810;28;19925;-60
2022/09/28 15:06:58;;;;;;;;;;;;;;;;;;20759537;28;19929;-57
2022/09/28 15:17:02;;;;;;;;;;;;;;;;;;20757687;28;20218;-59
2022/09/28 15:27:04;;;;;;;;;;;;;;;;;;20757259;28;19968;-59
2022/09/28 15:37:10;;;;;;;;;;;;;;;;;;20838740;28;19925;-55
2022/09/28 15:47:12;;;;;;;;;;;;;;;;;;20836664;28;19925;-61
2022/09/28 15:57:14;;;;;;;;;;;;;;;;;;20836186;28;19925;-56
2022/09/28 16:07:16;;;;;;;;;;;;;;;;;;20836020;28;20434;-57
2022/09/28 16:17:18;;;;;;;;;;;;;;;;;;20834128;28;19929;-58
2022/09/28 16:27:19;;;;;;;;;;;;;;;;;;20795805;28;19964;-62
2022/09/28 16:37:21;;;;;;;;;;;;;;;;;;20749945;28;19932;-57
2022/09/28 16:47:23;;;;;;;;;;;;;;;;;;20750487;28;20359;-60
2022/09/28 16:57:25;;;;;;;;;;;;;;;;;;20698736;28;19926;-64
2022/09/28 17:07:28;;;;;;;;;;;;;;;;;;20668342;28;19929;-64
2022/09/28 17:17:30;;;;;;;;;;;;;;;;;;20621157;28;19926;-60
2022/09/28 17:27:33;;;;;;;;;;;;;;;;;;20670313;28;20293;-62
2022/09/28 17:37:35;;;;;;;;;;;;;;;;;;20747358;28;19926;-60
2022/09/28 17:47:36;;;;;;;;;;;;;;;;;;20747768;28;20008;-58
2022/09/28 17:57:38;;;;;;;;;;;;;;;;;;20748188;28;19930;-62
2022/09/28 18:07:39;;;;;;;;;;;;;;;;;;20764099;28;19925;-60
2022/09/28 18:17:41;;;;;;;;;;;;;;;;;;20763544;28;20294;-61
2022/09/28 18:27:43;;;;;;;;;;;;;;;;;;20762278;28;20458;-58
2022/09/28 18:37:45;;;;;;;;;;;;;;;;;;20762004;28;19969;-62
2022/09/28 18:47:47;;;;;;;;;;;;;;;;;;20763032;28;20017;-60
2022/09/28 18:57:50;;;;;;;;;;;;;;;;;;20761613;28;19929;-59
2022/09/28 19:07:52;;;;;;;;;;;;;;;;;;20760126;28;19933;-61
2022/09/28 19:17:53;;;;;;;;;;;;;;;;;;20757990;28;19926;-60
2022/09/28 19:27:55;;;;;;;;;;;;;;;;;;20758599;28;19967;-62
2022/09/28 19:37:57;;;;;;;;;;;;;;;;;;20757334;28;20064;-61
2022/09/28 19:48:00;;;;;;;;;;;;;;;;;;20756844;28;19969;-61
2022/09/28 19:58:02;;;;;;;;;;;;;;;;;;20757419;28;19969;-61
2022/09/28 20:08:04;;;;;;;;;;;;;;;;;;20754843;28;20028;-63
2022/09/28 20:18:08;;;;;;;;;;;;;;;;;;20754061;28;19926;-61
2022/09/28 20:28:09;;;;;;;;;;;;;;;;;;20752544;28;19933;-61
2022/09/28 20:38:11;;;;;;;;;;;;;;;;;;20752704;28;20004;-59
2022/09/28 20:48:13;;;;;;;;;;;;;;;;;;20751703;28;20024;-60
2022/09/28 20:58:15;;;;;;;;;;;;;;;;;;20752022;28;19925;-61
2022/09/28 21:08:17;;;;;;;;;;;;;;;;;;20751268;28;19932;-61
2022/09/28 21:18:19;;;;;;;;;;;;;;;;;;20751173;28;19925;-64
2022/09/28 21:28:21;;;;;;;;;;;;;;;;;;20749400;28;19925;-61
2022/09/28 21:38:23;;;;;;;;;;;;;;;;;;20748351;28;20044;-62
2022/09/28 21:48:25;;;;;;;;;;;;;;;;;;20749535;28;19930;-61
2022/09/28 21:58:27;;;;;;;;;;;;;;;;;;20731694;28;19925;-60
2022/09/28 22:08:29;;;;;;;;;;;;;;;;;;20748138;28;19926;-61
2022/09/28 22:18:30;;;;;;;;;;;;;;;;;;20749407;28;19926;-60
2022/09/28 22:28:32;;;;;;;;;;;;;;;;;;20747398;28;20027;-61
2022/09/28 22:38:34;;;;;;;;;;;;;;;;;;20747680;28;19926;-62
2022/09/28 22:48:36;;;;;;;;;;;;;;;;;;20755302;28;19949;-62
2022/09/28 22:58:37;;;;;;;;;;;;;;;;;;20761336;28;20338;-64
2022/09/28 23:08:39;;;;;;;;;;;;;;;;;;20760240;28;20274;-61
2022/09/28 23:18:41;;;;;;;;;;;;;;;;;;20760201;28;20417;-61
2022/09/28 23:28:43;;;;;;;;;;;;;;;;;;20759042;28;19926;-60
2022/09/28 23:38:44;;;;;;;;;;;;;;;;;;20758920;28;19937;-60
2022/09/28 23:48:46;;;;;;;;;;;;;;;;;;20756650;28;19932;-60
2022/09/28 23:58:48;;;;;;;;;;;;;;;;;;20755571;28;20382;-61
